Time;durP1;ratioP1;P1;durP2;ratioP2;P2;SDS_P1;SDS_P2;PMS_P1;PMS_P2;Temp;Humidity;BMP_temperature;BMP_pressure;BME280_temperature;BME280_humidity;BME280_pressure;Samples;Min_cycle;Max_cycle;Signal;HPM_P1;HPM_P2
2022/11/04 00:01:57;;;;;;;13.07;7.67;;;8.20;99.90;;;;;;5054629;28;20447;-53
2022/11/04 00:04:25;;;;;;;13.27;7.10;;;8.20;99.90;;;;;;5050007;28;20494;-53
2022/11/04 00:06:52;;;;;;;11.30;6.30;;;8.20;99.90;;;;;;5053387;28;20478;-53
2022/11/04 00:09:21;;;;;;;10.70;7.30;;;8.20;99.90;;;;;;5052333;28;20521;-53
2022/11/04 00:14:34;;;;;;;12.97;6.60;;;8.10;99.90;;;;;;5047266;28;20867;-53
2022/11/04 00:30:48;;;;;;;9.17;7.40;;;8.10;99.90;;;;;;5055052;28;20448;-51
2022/11/04 00:33:27;;;;;;;15.33;6.77;;;8.10;99.90;;;;;;5051674;28;20466;-52
2022/11/04 00:35:56;;;;;;;9.30;6.30;;;8.00;99.90;;;;;;5047270;28;20461;-53
2022/11/04 00:38:23;;;;;;;10.53;7.47;;;8.10;99.90;;;;;;5050885;28;20485;-54
2022/11/04 00:40:50;;;;;;;13.97;7.80;;;8.10;99.90;;;;;;5056599;28;20481;-53
2022/11/04 00:43:17;;;;;;;10.80;6.73;;;8.00;99.90;;;;;;5052622;28;20450;-53
2022/11/04 00:45:43;;;;;;;13.47;6.67;;;8.00;99.90;;;;;;5052034;28;20507;-53
2022/11/04 00:48:11;;;;;;;17.93;8.50;;;8.00;99.90;;;;;;5048526;28;20492;-54
2022/11/04 00:50:39;;;;;;;17.03;7.93;;;7.90;99.90;;;;;;5051023;28;20454;-53
2022/11/04 00:53:05;;;;;;;13.00;7.20;;;7.90;99.90;;;;;;5047468;28;20459;-53
2022/11/04 00:55:32;;;;;;;10.63;6.47;;;7.90;98.90;;;;;;5048608;28;20520;-53
2022/11/04 00:57:59;;;;;;;12.10;7.23;;;7.90;96.30;;;;;;5051377;28;20541;-53
2022/11/04 01:00:26;;;;;;;10.90;7.20;;;7.80;95.70;;;;;;5044382;28;20454;-53
2022/11/04 01:02:53;;;;;;;15.60;7.40;;;7.80;93.10;;;;;;5046019;28;20924;-53
2022/11/04 01:05:19;;;;;;;11.67;7.57;;;7.80;89.40;;;;;;5050767;28;20472;-54
2022/11/04 01:07:47;;;;;;;14.00;7.37;;;7.80;87.00;;;;;;5050797;28;20531;-54
2022/11/04 01:10:14;;;;;;;15.03;8.10;;;7.70;85.70;;;;;;5051411;28;20497;-53
2022/11/04 01:12:40;;;;;;;12.70;7.43;;;7.70;84.30;;;;;;5041163;28;20462;-54
2022/11/04 01:15:07;;;;;;;14.57;8.17;;;7.80;81.70;;;;;;5050014;28;20523;-52
2022/11/04 01:17:34;;;;;;;10.73;7.37;;;7.80;80.40;;;;;;5048288;28;20547;-53
2022/11/04 01:20:00;;;;;;;10.50;7.00;;;7.70;80.20;;;;;;5047894;28;20509;-53
2022/11/04 01:22:27;;;;;;;14.60;7.43;;;7.70;79.10;;;;;;5048779;28;20458;-53
2022/11/04 01:24:55;;;;;;;15.80;8.30;;;7.70;77.80;;;;;;5049746;28;20976;-53
2022/11/04 01:27:21;;;;;;;19.33;8.03;;;7.70;77.30;;;;;;5046033;28;20475;-53
2022/11/04 01:29:48;;;;;;;11.17;7.20;;;7.70;76.00;;;;;;5050252;28;20527;-53
2022/11/04 01:32:15;;;;;;;11.90;7.70;;;7.70;76.10;;;;;;5047890;28;20646;-53
2022/11/04 01:34:41;;;;;;;11.87;7.53;;;7.70;74.20;;;;;;5051958;28;20449;-53
2022/11/04 01:37:08;;;;;;;12.13;6.70;;;7.70;73.10;;;;;;5052098;28;20482;-53
2022/11/04 01:39:34;;;;;;;12.17;7.87;;;7.70;71.50;;;;;;5051336;28;20544;-53
2022/11/04 01:42:02;;;;;;;11.30;7.33;;;7.70;69.20;;;;;;5049695;28;20979;-52
2022/11/04 01:44:51;;;;;;;13.33;7.93;;;7.70;67.90;;;;;;5047896;28;20512;-53
2022/11/04 01:47:21;;;;;;;17.57;8.67;;;7.70;66.90;;;;;;5046154;28;20514;-52
2022/11/04 01:49:52;;;;;;;21.23;8.67;;;7.80;65.20;;;;;;5046387;28;20506;-52
2022/11/04 01:52:26;;;;;;;16.77;9.00;;;7.80;65.40;;;;;;5048345;28;20453;-53
2022/11/04 01:54:55;;;;;;;11.20;8.37;;;7.90;65.60;;;;;;5045506;28;20516;-53
2022/11/04 01:57:30;;;;;;;18.63;9.70;;;7.90;67.00;;;;;;5048430;28;20954;-52
2022/11/04 01:59:59;;;;;;;9.70;7.07;;;8.00;69.70;;;;;;5048688;28;20477;-52
2022/11/04 02:02:26;;;;;;;12.03;7.63;;;7.90;70.50;;;;;;5045623;28;20958;-52
2022/11/04 02:04:52;;;;;;;11.93;7.40;;;8.00;71.00;;;;;;5043492;28;20531;-53
2022/11/04 02:07:20;;;;;;;11.30;7.73;;;8.00;73.90;;;;;;5048873;28;20539;-53
2022/11/04 02:09:46;;;;;;;12.37;8.30;;;8.00;75.30;;;;;;5042774;28;20486;-53
2022/11/04 02:14:59;;;;;;;12.67;7.03;;;8.00;75.70;;;;;;5051963;28;21017;-53
2022/11/04 02:17:55;;;;;;;14.50;8.90;;;8.00;77.60;;;;;;5049631;28;20477;-53
2022/11/04 02:20:48;;;;;;;13.93;8.50;;;8.00;79.80;;;;;;5046685;28;20462;-53
2022/11/04 02:23:50;;;;;;;15.33;9.00;;;8.00;79.40;;;;;;5048240;28;20566;-53
2022/11/04 02:26:40;;;;;;;10.67;8.00;;;8.00;79.80;;;;;;5045471;28;20587;-52
2022/11/04 02:29:22;;;;;;;13.83;8.30;;;8.00;79.50;;;;;;5047470;28;20514;-53
2022/11/04 02:31:55;;;;;;;12.90;8.63;;;8.00;79.50;;;;;;5049792;28;20504;-53
2022/11/04 02:34:29;;;;;;;19.33;8.90;;;8.00;79.00;;;;;;5046577;28;20524;-52
2022/11/04 02:37:02;;;;;;;22.20;8.77;;;7.90;79.20;;;;;;5054472;28;20503;-53
2022/11/04 02:39:37;;;;;;;18.63;9.03;;;7.90;75.60;;;;;;5050069;28;20473;-53
2022/11/04 02:42:11;;;;;;;12.90;8.90;;;7.90;74.80;;;;;;5049733;28;20507;-53
2022/11/04 02:44:44;;;;;;;11.07;7.90;;;7.80;73.50;;;;;;5044484;28;20468;-53
2022/11/04 02:47:15;;;;;;;11.73;8.03;;;7.80;72.30;;;;;;5045858;28;20488;-53
2022/11/04 02:49:47;;;;;;;13.10;8.40;;;7.80;71.70;;;;;;5048355;28;20524;-53
2022/11/04 02:52:19;;;;;;;13.27;7.90;;;7.70;69.50;;;;;;5048025;28;20959;-53
2022/11/04 02:54:51;;;;;;;18.63;9.00;;;7.70;67.80;;;;;;5049798;28;20481;-52
2022/11/04 02:57:22;;;;;;;12.47;8.83;;;7.70;65.50;;;;;;5047774;28;20527;-52
2022/11/04 02:59:57;;;;;;;16.60;9.73;;;7.70;63.00;;;;;;5049448;28;20966;-53
2022/11/04 03:02:27;;;;;;;13.97;9.23;;;7.70;62.20;;;;;;5045355;28;20461;-53
2022/11/04 03:04:57;;;;;;;12.80;8.17;;;7.60;61.80;;;;;;5049071;28;20438;-53
2022/11/04 03:07:28;;;;;;;14.47;8.60;;;7.60;60.50;;;;;;5051813;28;21068;-53
2022/11/04 03:10:01;;;;;;;13.17;9.30;;;7.60;58.60;;;;;;5046562;28;20490;-53
2022/11/04 03:12:33;;;;;;;11.30;8.03;;;7.60;56.60;;;;;;5052612;28;20461;-53
2022/11/04 03:15:06;;;;;;;13.10;8.67;;;7.60;56.00;;;;;;5053301;28;20503;-53
2022/11/04 03:17:36;;;;;;;13.17;7.80;;;7.60;54.10;;;;;;5054476;28;20438;-53
2022/11/04 03:20:09;;;;;;;13.20;8.53;;;7.70;53.10;;;;;;5046092;28;20482;-54
2022/11/04 03:22:37;;;;;;;15.17;8.40;;;7.70;52.30;;;;;;5053959;28;20959;-53
2022/11/04 03:25:04;;;;;;;13.03;8.70;;;7.70;51.70;;;;;;5050896;28;20511;-53
2022/11/04 03:27:35;;;;;;;18.10;8.67;;;7.70;50.60;;;;;;5055120;28;20477;-53
2022/11/04 03:30:08;;;;;;;14.63;9.20;;;7.80;49.60;;;;;;5053920;28;20485;-53
2022/11/04 03:32:41;;;;;;;15.60;8.90;;;7.80;49.10;;;;;;5054716;28;20445;-53
2022/11/04 03:35:09;;;;;;;15.80;8.40;;;7.90;48.50;;;;;;5052097;28;20527;-52
2022/11/04 03:37:36;;;;;;;15.83;9.40;;;8.00;48.90;;;;;;5048951;28;20504;-53
2022/11/04 03:40:03;;;;;;;14.93;8.97;;;8.00;49.40;;;;;;5052757;28;20481;-53
2022/11/04 03:42:32;;;;;;;20.97;9.87;;;8.00;52.00;;;;;;5052141;28;20515;-52
2022/11/04 03:44:59;;;;;;;17.70;9.10;;;8.00;52.60;;;;;;5051114;28;20466;-52
2022/11/04 03:47:29;;;;;;;11.80;8.30;;;8.10;53.40;;;;;;5050643;28;20531;-52
2022/11/04 03:50:02;;;;;;;18.43;9.20;;;8.10;53.40;;;;;;5050633;28;20478;-52
2022/11/04 03:52:28;;;;;;;13.63;9.90;;;8.10;53.00;;;;;;5044325;28;20466;-53
2022/11/04 03:54:55;;;;;;;14.73;8.30;;;8.10;53.80;;;;;;5052818;28;21019;-53
2022/11/04 03:57:33;;;;;;;17.40;8.77;;;8.20;54.60;;;;;;5052785;28;20539;-52
2022/11/04 04:00:07;;;;;;;10.43;7.57;;;8.20;56.50;;;;;;5050646;28;20490;-53
2022/11/04 04:02:46;;;;;;;14.40;8.30;;;8.20;57.40;;;;;;5051308;28;20466;-53
2022/11/04 04:05:20;;;;;;;13.33;9.27;;;8.20;59.20;;;;;;5053326;28;20461;-53
2022/11/04 04:07:52;;;;;;;13.07;7.80;;;8.20;62.30;;;;;;5056027;28;20507;-53
2022/11/04 04:10:41;;;;;;;21.93;8.87;;;8.10;62.00;;;;;;5053270;28;20462;-52
2022/11/04 04:13:23;;;;;;;16.50;7.90;;;8.10;61.70;;;;;;5055656;28;20828;-51
2022/11/04 04:15:57;;;;;;;11.67;8.37;;;8.10;62.50;;;;;;5046015;28;20486;-52
2022/11/04 04:18:31;;;;;;;25.80;8.97;;;8.10;61.40;;;;;;5048999;28;20552;-52
2022/11/04 04:21:00;;;;;;;13.90;9.60;;;8.10;61.50;;;;;;5047778;28;20457;-51
2022/11/04 04:29:03;;;;;;;12.73;8.30;;;8.10;59.70;;;;;;5049885;28;20468;-52
2022/11/04 04:31:50;;;;;;;17.60;10.20;;;8.10;58.70;;;;;;5050144;28;20480;-51
2022/11/04 04:34:20;;;;;;;17.17;9.10;;;8.10;58.30;;;;;;5050314;28;20467;-52
2022/11/04 04:36:51;;;;;;;17.43;9.80;;;8.10;56.70;;;;;;5045270;28;20466;-53
2022/11/04 04:45:00;;;;;;;14.47;8.90;;;8.10;56.00;;;;;;5051395;28;20975;-53
2022/11/04 04:47:31;;;;;;;16.93;9.83;;;8.10;55.30;;;;;;5049187;28;20492;-53
2022/11/04 04:50:00;;;;;;;15.07;8.63;;;8.10;54.70;;;;;;5051184;28;20535;-53
2022/11/04 04:52:29;;;;;;;16.70;9.33;;;8.10;54.00;;;;;;5038667;28;20492;-53
2022/11/04 04:54:56;;;;;;;14.13;8.80;;;8.10;53.70;;;;;;5049136;28;20832;-53
2022/11/04 04:57:23;;;;;;;20.17;8.80;;;8.10;54.50;;;;;;5050118;28;20455;-53
2022/11/04 04:59:49;;;;;;;14.53;10.10;;;8.20;53.90;;;;;;5051945;28;20855;-52
2022/11/04 05:02:16;;;;;;;14.90;10.10;;;8.10;53.60;;;;;;5050702;28;20516;-52
2022/11/04 05:04:42;;;;;;;22.23;14.17;;;8.10;53.50;;;;;;5051890;28;20513;-52
2022/11/04 05:07:10;;;;;;;47.13;42.13;;;8.10;53.10;;;;;;5051639;28;20477;-53
2022/11/04 05:09:37;;;;;;;19.70;13.67;;;8.20;53.20;;;;;;5044625;28;20485;-52
2022/11/04 05:12:04;;;;;;;23.30;9.93;;;8.20;52.80;;;;;;5049711;28;20516;-53
2022/11/04 05:14:30;;;;;;;14.23;10.27;;;8.20;52.30;;;;;;5051742;28;20484;-53
2022/11/04 05:16:57;;;;;;;18.47;10.30;;;8.20;51.60;;;;;;5050609;28;20459;-53
2022/11/04 05:19:24;;;;;;;17.10;8.77;;;8.20;51.80;;;;;;5052282;28;20545;-53
2022/11/04 05:21:51;;;;;;;15.00;8.37;;;8.30;51.10;;;;;;5051639;28;20525;-52
2022/11/04 05:24:19;;;;;;;15.43;9.30;;;8.20;51.30;;;;;;5050145;28;20951;-52
2022/11/04 05:26:45;;;;;;;25.47;8.10;;;8.30;51.00;;;;;;5048275;28;20464;-52
2022/11/04 05:29:12;;;;;;;12.10;8.77;;;8.30;51.20;;;;;;5042901;28;20491;-52
2022/11/04 05:31:38;;;;;;;14.70;9.30;;;8.30;51.10;;;;;;5050410;28;20462;-52
2022/11/04 05:34:05;;;;;;;11.80;9.00;;;8.30;50.90;;;;;;5051382;28;20474;-52
2022/11/04 05:36:32;;;;;;;18.33;9.60;;;8.30;50.80;;;;;;5050427;28;20489;-53
2022/11/04 05:38:59;;;;;;;16.07;10.50;;;8.30;49.70;;;;;;5051141;28;20553;-52
2022/11/04 05:41:27;;;;;;;14.07;9.87;;;8.30;49.60;;;;;;5051369;28;20508;-52
2022/11/04 05:43:54;;;;;;;15.10;10.00;;;8.40;49.90;;;;;;5050643;28;21073;-52
2022/11/04 05:46:21;;;;;;;16.03;9.70;;;8.30;49.50;;;;;;5049984;28;20511;-52
2022/11/04 05:48:48;;;;;;;17.10;9.13;;;8.30;49.50;;;;;;5044270;28;20489;-51
2022/11/04 05:51:16;;;;;;;15.33;9.47;;;8.30;48.50;;;;;;5051006;28;20932;-52
2022/11/04 05:53:43;;;;;;;14.83;9.67;;;8.40;48.20;;;;;;5049370;28;20458;-52
2022/11/04 05:56:10;;;;;;;12.63;8.90;;;8.40;47.30;;;;;;5050468;28;20462;-51
2022/11/04 05:58:38;;;;;;;16.90;9.90;;;8.40;47.40;;;;;;5049764;28;20503;-52
2022/11/04 06:01:13;;;;;;;15.00;9.67;;;8.40;46.80;;;;;;5049878;28;20471;-52
2022/11/04 06:03:40;;;;;;;17.37;9.03;;;8.50;46.30;;;;;;5049911;28;20524;-52
2022/11/04 06:06:06;;;;;;;22.63;9.70;;;8.50;45.80;;;;;;5051304;28;20481;-52
2022/11/04 06:08:33;;;;;;;21.33;9.23;;;8.50;45.10;;;;;;5047772;28;20485;-51
2022/11/04 06:10:59;;;;;;;15.60;8.97;;;8.50;44.70;;;;;;5041652;28;20462;-52
2022/11/04 06:13:26;;;;;;;17.57;9.47;;;8.50;44.50;;;;;;5051131;28;20458;-51
2022/11/04 06:15:54;;;;;;;14.70;9.60;;;8.50;43.80;;;;;;5051077;28;20458;-52
2022/11/04 06:18:20;;;;;;;13.43;9.60;;;8.50;43.00;;;;;;5050400;28;20478;-52
2022/11/04 06:20:47;;;;;;;17.77;9.13;;;8.60;42.60;;;;;;5049101;28;20536;-52
2022/11/04 06:23:14;;;;;;;13.17;9.03;;;8.60;42.40;;;;;;5048132;28;20980;-52
2022/11/04 06:25:40;;;;;;;16.70;9.17;;;8.60;42.00;;;;;;5049299;28;20553;-52
2022/11/04 06:28:07;;;;;;;13.40;9.27;;;8.60;42.00;;;;;;5050210;28;20485;-51
2022/11/04 06:30:33;;;;;;;10.83;8.47;;;8.60;42.80;;;;;;5046493;28;20517;-51
2022/11/04 06:33:01;;;;;;;13.00;8.60;;;8.60;40.90;;;;;;5050953;28;20523;-52
2022/11/04 06:35:28;;;;;;;17.43;9.23;;;8.60;40.10;;;;;;5049233;28;20458;-53
2022/11/04 06:37:55;;;;;;;15.40;9.00;;;8.60;39.30;;;;;;5050989;28;20434;-51
2022/11/04 06:40:21;;;;;;;15.10;9.17;;;8.60;39.40;;;;;;5050581;28;20493;-52
2022/11/04 06:42:49;;;;;;;14.50;8.70;;;8.70;39.60;;;;;;5049438;28;20462;-51
2022/11/04 06:45:16;;;;;;;13.40;8.60;;;8.70;38.60;;;;;;5050149;28;20461;-51
2022/11/04 06:47:42;;;;;;;11.03;9.10;;;8.70;38.90;;;;;;5044667;28;20478;-53
2022/11/04 06:50:12;;;;;;;12.70;9.33;;;8.70;37.80;;;;;;5050666;28;20485;-53
2022/11/04 06:52:38;;;;;;;14.70;9.57;;;8.80;36.60;;;;;;5045044;28;20496;-52
2022/11/04 06:55:07;;;;;;;19.10;8.40;;;8.80;36.40;;;;;;5050577;28;20462;-52
2022/11/04 06:57:33;;;;;;;10.93;8.40;;;8.80;35.70;;;;;;5050916;28;20541;-52
2022/11/04 07:00:00;;;;;;;17.30;9.20;;;8.80;36.20;;;;;;5049197;28;20563;-52
2022/11/04 07:02:27;;;;;;;11.20;8.20;;;8.90;35.80;;;;;;5048922;28;20484;-52
2022/11/04 07:04:53;;;;;;;16.33;8.60;;;8.90;35.70;;;;;;5048802;28;20515;-52
2022/11/04 07:07:21;;;;;;;11.27;8.53;;;8.90;35.30;;;;;;5050743;28;20524;-53
2022/11/04 07:09:48;;;;;;;16.27;10.07;;;8.90;34.30;;;;;;5049749;28;20485;-52
2022/11/04 07:12:14;;;;;;;14.90;9.90;;;8.90;34.10;;;;;;5050994;28;20856;-52
2022/11/04 07:14:41;;;;;;;14.20;10.10;;;9.00;31.60;;;;;;5050231;28;20469;-52
2022/11/04 07:17:08;;;;;;;18.37;10.87;;;9.00;30.70;;;;;;5049578;28;20453;-52
2022/11/04 07:19:34;;;;;;;12.03;10.00;;;9.10;29.00;;;;;;5049671;28;20480;-53
2022/11/04 07:22:01;;;;;;;16.13;11.00;;;9.10;28.70;;;;;;5048385;28;20458;-52
2022/11/04 07:24:29;;;;;;;16.53;10.40;;;9.10;29.10;;;;;;5044189;28;20878;-52
2022/11/04 07:26:55;;;;;;;14.10;10.13;;;9.20;28.20;;;;;;5045328;28;20531;-52
2022/11/04 07:29:24;;;;;;;13.87;9.67;;;9.20;27.20;;;;;;5050500;28;20493;-52
2022/11/04 07:31:51;;;;;;;13.73;9.87;;;9.20;25.60;;;;;;5048133;28;20551;-52
2022/11/04 07:34:17;;;;;;;15.80;10.53;;;9.30;24.80;;;;;;5048583;28;20458;-52
2022/11/04 07:36:44;;;;;;;12.77;9.60;;;9.30;23.70;;;;;;5044476;28;20458;-52
2022/11/04 07:39:10;;;;;;;18.40;10.60;;;9.40;22.90;;;;;;5046005;28;20477;-52
2022/11/04 07:41:38;;;;;;;17.23;10.23;;;9.40;22.10;;;;;;5045251;28;20512;-53
2022/11/04 07:44:05;;;;;;;14.60;9.73;;;9.40;20.20;;;;;;5048010;28;20535;-52
2022/11/04 07:46:32;;;;;;;22.90;10.77;;;9.40;90.80;;;;;;5043823;28;20975;-54
2022/11/04 07:48:59;;;;;;;12.13;9.60;;;9.50;99.90;;;;;;5042819;28;20995;-52
2022/11/04 07:51:26;;;;;;;15.50;9.90;;;9.60;99.90;;;;;;5048521;28;20892;-52
2022/11/04 07:53:54;;;;;;;19.40;10.67;;;9.70;99.90;;;;;;5049957;28;20462;-52
2022/11/04 07:56:22;;;;;;;13.43;9.83;;;9.70;99.90;;;;;;5052429;28;20470;-51
2022/11/04 07:58:51;;;;;;;15.40;11.20;;;9.70;99.90;;;;;;5041777;28;20477;-54
2022/11/04 08:01:20;;;;;;;13.43;9.43;;;9.70;99.90;;;;;;5048454;28;20457;-52
2022/11/04 08:03:48;;;;;;;15.80;11.33;;;9.70;99.90;;;;;;5052559;28;20537;-53
2022/11/04 08:06:16;;;;;;;12.97;10.70;;;9.80;99.90;;;;;;5048954;28;20472;-54
2022/11/04 08:08:43;;;;;;;12.90;10.70;;;9.80;99.90;;;;;;5051750;28;20980;-53
2022/11/04 08:11:11;;;;;;;18.07;10.37;;;9.90;99.90;;;;;;5050134;28;20461;-53
2022/11/04 08:13:40;;;;;;;14.33;9.73;;;9.90;99.90;;;;;;5051441;28;20512;-52
2022/11/04 08:16:12;;;;;;;17.13;11.07;;;10.00;99.90;;;;;;5051170;28;20511;-52
2022/11/04 08:18:39;;;;;;;20.13;11.33;;;10.10;99.90;;;;;;5052249;28;20486;-52
2022/11/04 08:21:06;;;;;;;14.60;10.47;;;10.10;99.90;;;;;;5051917;28;20462;-53
2022/11/04 08:23:33;;;;;;;12.93;11.00;;;10.20;99.90;;;;;;5051642;28;20454;-53
2022/11/04 08:26:00;;;;;;;12.57;10.80;;;10.20;99.90;;;;;;5052547;28;20816;-53
2022/11/04 08:28:28;;;;;;;14.00;12.20;;;10.20;99.90;;;;;;5050654;28;20547;-53
2022/11/04 08:30:57;;;;;;;11.57;10.13;;;10.20;99.90;;;;;;5052707;28;20465;-53
2022/11/04 08:33:25;;;;;;;11.73;10.53;;;10.10;99.90;;;;;;5050394;28;20516;-53
2022/11/04 08:35:52;;;;;;;14.07;10.40;;;10.20;99.90;;;;;;5049355;28;20800;-53
2022/11/04 08:38:19;;;;;;;16.70;10.70;;;10.20;99.90;;;;;;5052804;28;20481;-53
2022/11/04 08:40:46;;;;;;;13.60;9.97;;;10.20;99.90;;;;;;5051042;28;20470;-53
2022/11/04 08:43:13;;;;;;;13.83;11.63;;;10.20;99.90;;;;;;5048808;28;20465;-53
2022/11/04 08:45:40;;;;;;;17.03;11.80;;;10.20;99.90;;;;;;5040805;28;21175;-52
2022/11/04 08:48:07;;;;;;;14.13;11.70;;;10.20;99.90;;;;;;5050181;28;20466;-52
2022/11/04 08:50:35;;;;;;;16.00;11.60;;;10.20;99.90;;;;;;5046088;28;20465;-54
2022/11/04 08:53:02;;;;;;;13.10;11.70;;;10.20;99.90;;;;;;5046278;28;20532;-53
2022/11/04 08:55:29;;;;;;;19.67;11.97;;;10.30;99.90;;;;;;5051624;28;20457;-53
2022/11/04 08:57:56;;;;;;;14.63;11.83;;;10.30;99.90;;;;;;5051269;28;20476;-53
2022/11/04 09:00:23;;;;;;;16.80;10.47;;;10.30;99.90;;;;;;5045064;28;20454;-52
2022/11/04 09:02:49;;;;;;;16.00;10.60;;;10.30;99.90;;;;;;5048533;28;20503;-53
2022/11/04 09:05:16;;;;;;;17.07;12.30;;;10.30;99.90;;;;;;5050282;28;20466;-52
2022/11/04 09:07:44;;;;;;;16.90;12.20;;;10.40;99.90;;;;;;5052562;28;20438;-52
2022/11/04 09:10:11;;;;;;;15.90;9.90;;;10.40;99.90;;;;;;5046970;28;20490;-53
2022/11/04 09:12:38;;;;;;;15.17;10.83;;;10.40;99.90;;;;;;5049797;28;20458;-53
2022/11/04 09:15:05;;;;;;;12.60;10.87;;;10.40;99.90;;;;;;5051727;28;20512;-53
2022/11/04 09:17:32;;;;;;;25.57;17.70;;;10.40;99.90;;;;;;5046745;28;20515;-53
2022/11/04 09:19:58;;;;;;;16.77;11.83;;;10.40;99.90;;;;;;5050906;28;20523;-53
2022/11/04 09:22:25;;;;;;;12.00;10.77;;;10.50;99.90;;;;;;5043435;28;20532;-53
2022/11/04 09:24:53;;;;;;;14.43;11.67;;;10.50;99.90;;;;;;5049999;28;20528;-53
2022/11/04 09:27:20;;;;;;;12.97;10.47;;;10.50;99.90;;;;;;5047277;28;20516;-53
2022/11/04 09:29:46;;;;;;;13.63;10.53;;;10.50;99.90;;;;;;5047927;28;20547;-51
2022/11/04 09:32:13;;;;;;;12.40;9.93;;;10.50;99.90;;;;;;5045005;28;20466;-51
2022/11/04 09:34:40;;;;;;;13.17;10.10;;;10.50;99.90;;;;;;5050710;28;20466;-51
2022/11/04 09:37:07;;;;;;;12.77;10.77;;;10.50;99.90;;;;;;5048724;28;20466;-52
2022/11/04 09:39:33;;;;;;;14.50;11.00;;;10.50;99.90;;;;;;5052486;28;20516;-52
2022/11/04 09:42:18;;;;;;;19.40;11.40;;;10.50;99.90;;;;;;5050767;28;20454;-51
2022/11/04 09:44:50;;;;;;;16.80;10.70;;;10.50;99.90;;;;;;5042874;28;20615;-52
2022/11/04 09:47:18;;;;;;;14.20;11.57;;;10.60;99.90;;;;;;5038526;28;20469;-51
2022/11/04 09:49:47;;;;;;;13.90;10.03;;;10.50;99.90;;;;;;5038298;28;20487;-52
2022/11/04 09:52:18;;;;;;;15.30;9.37;;;10.60;99.90;;;;;;5050955;28;20523;-51
2022/11/04 09:54:52;;;;;;;11.20;8.53;;;10.60;99.90;;;;;;5050246;28;20473;-51
2022/11/04 09:57:20;;;;;;;9.87;8.80;;;10.60;99.90;;;;;;5047181;28;20984;-51
2022/11/04 09:59:48;;;;;;;17.70;9.50;;;10.60;99.90;;;;;;5050538;28;21043;-51
2022/11/04 10:02:44;;;;;;;10.20;8.20;;;10.60;99.90;;;;;;5049522;28;20881;-51
2022/11/04 10:05:24;;;;;;;12.53;8.87;;;10.70;99.90;;;;;;5051641;28;20446;-52
2022/11/04 10:08:08;;;;;;;14.50;10.73;;;10.60;99.90;;;;;;5051875;28;20511;-52
2022/11/04 10:10:40;;;;;;;13.50;9.00;;;10.60;99.90;;;;;;5052057;28;20489;-52
2022/11/04 10:13:19;;;;;;;13.73;9.80;;;10.60;99.90;;;;;;5050493;28;20477;-51
2022/11/04 10:15:57;;;;;;;14.47;9.77;;;10.70;99.90;;;;;;5051270;28;20438;-51
2022/11/04 10:18:35;;;;;;;10.50;7.77;;;10.70;99.90;;;;;;5052218;28;20527;-52
2022/11/04 10:21:11;;;;;;;8.57;7.33;;;10.70;99.90;;;;;;5051894;28;20503;-51
2022/11/04 10:23:44;;;;;;;12.70;9.70;;;10.70;99.90;;;;;;5052278;28;20438;-51
2022/11/04 10:26:16;;;;;;;9.77;8.00;;;10.70;99.90;;;;;;5050635;28;20461;-52
2022/11/04 10:28:49;;;;;;;10.00;7.47;;;10.70;99.90;;;;;;5051248;28;20524;-51
2022/11/04 10:31:18;;;;;;;12.53;7.50;;;10.70;99.90;;;;;;5051846;28;20450;-52
2022/11/04 10:33:48;;;;;;;13.33;7.87;;;10.60;99.90;;;;;;5051874;28;20795;-51
2022/11/04 10:36:16;;;;;;;9.60;7.50;;;10.70;99.90;;;;;;5052188;28;20516;-52
2022/11/04 10:38:46;;;;;;;15.67;9.03;;;10.70;99.90;;;;;;5051944;28;20466;-51
2022/11/04 10:41:22;;;;;;;11.23;7.50;;;10.70;99.90;;;;;;5049730;28;20462;-51
2022/11/04 10:43:51;;;;;;;13.00;8.20;;;10.70;99.90;;;;;;5051729;28;20511;-51
2022/11/04 10:46:30;;;;;;;7.87;7.07;;;10.70;99.90;;;;;;5051724;28;20515;-51
2022/11/04 10:49:03;;;;;;;10.60;7.20;;;10.70;99.90;;;;;;5051497;28;20485;-51
2022/11/04 10:51:29;;;;;;;7.90;6.97;;;10.80;99.90;;;;;;5051714;28;20442;-52
2022/11/04 10:53:58;;;;;;;10.80;7.57;;;10.80;99.90;;;;;;5051730;28;20445;-52
2022/11/04 10:56:35;;;;;;;8.20;7.00;;;10.80;99.90;;;;;;5051224;28;20470;-51
2022/11/04 10:59:17;;;;;;;10.47;6.80;;;10.80;99.90;;;;;;5051471;28;20465;-51
2022/11/04 11:01:49;;;;;;;8.90;6.67;;;10.70;99.90;;;;;;5050183;28;20445;-51
2022/11/04 11:04:26;;;;;;;9.23;6.60;;;10.70;99.90;;;;;;5051758;28;20812;-51
2022/11/04 11:06:54;;;;;;;12.97;7.43;;;10.70;99.90;;;;;;5051641;28;20445;-52
2022/11/04 11:09:27;;;;;;;15.13;6.80;;;10.70;99.90;;;;;;5050324;28;20531;-52
2022/11/04 11:11:56;;;;;;;10.10;7.60;;;10.70;99.90;;;;;;5051071;28;20438;-52
2022/11/04 11:14:35;;;;;;;8.93;7.30;;;10.70;99.90;;;;;;5051665;28;20450;-51
2022/11/04 11:17:20;;;;;;;12.17;8.47;;;10.70;99.90;;;;;;5051748;28;20449;-51
2022/11/04 11:19:50;;;;;;;7.93;7.07;;;10.70;99.90;;;;;;5051080;28;20955;-51
2022/11/04 11:22:45;;;;;;;9.97;7.57;;;10.70;99.90;;;;;;5050980;28;20536;-51
2022/11/04 11:25:30;;;;;;;10.60;8.10;;;10.60;99.90;;;;;;5013234;28;20511;-51
2022/11/04 11:27:58;;;;;;;8.60;7.33;;;10.60;99.90;;;;;;5046816;28;20441;-52
2022/11/04 11:30:30;;;;;;;10.07;7.70;;;10.60;99.90;;;;;;5055002;28;20477;-51
2022/11/04 11:33:03;;;;;;;8.97;8.00;;;10.60;99.90;;;;;;5055093;28;20458;-52
2022/11/04 11:35:33;;;;;;;10.70;9.07;;;10.70;99.90;;;;;;5055401;28;20485;-52
2022/11/04 11:38:04;;;;;;;10.13;7.20;;;10.70;99.90;;;;;;5054258;28;21012;-51
2022/11/04 11:40:36;;;;;;;8.63;7.57;;;10.70;99.90;;;;;;5047110;28;20437;-52
2022/11/04 11:43:04;;;;;;;10.60;8.07;;;10.70;99.90;;;;;;5055071;28;20430;-52
2022/11/04 11:45:32;;;;;;;11.57;7.90;;;10.70;99.90;;;;;;5055174;28;20788;-52
2022/11/04 11:47:59;;;;;;;10.67;7.77;;;10.70;99.90;;;;;;5054558;28;20449;-52
2022/11/04 11:50:31;;;;;;;8.43;7.63;;;10.70;99.90;;;;;;5054430;28;20904;-52
2022/11/04 11:53:14;;;;;;;8.27;7.00;;;10.80;99.90;;;;;;5054040;28;20446;-52
2022/11/04 11:55:47;;;;;;;8.13;7.33;;;10.80;99.90;;;;;;5039887;28;20453;-51
2022/11/04 11:58:24;;;;;;;9.97;8.13;;;10.80;99.90;;;;;;5054926;28;20466;-52
2022/11/04 12:00:58;;;;;;;7.77;7.07;;;10.70;99.90;;;;;;5054387;28;20924;-51
2022/11/04 12:03:31;;;;;;;9.03;7.10;;;10.70;99.90;;;;;;5054107;28;21139;-52
2022/11/04 12:06:13;;;;;;;8.23;7.20;;;10.70;99.90;;;;;;5034425;28;21003;-52
2022/11/04 12:08:59;;;;;;;9.63;7.30;;;10.60;99.90;;;;;;5039138;28;20492;-52
2022/11/04 12:11:33;;;;;;;9.20;7.87;;;10.70;99.90;;;;;;5054064;28;20466;-52
2022/11/04 12:14:05;;;;;;;9.80;8.00;;;10.60;99.90;;;;;;5054430;28;20441;-51
2022/11/04 12:16:40;;;;;;;11.07;8.37;;;10.60;99.90;;;;;;5054214;28;20456;-51
2022/11/04 12:19:24;;;;;;;9.33;8.40;;;10.60;99.90;;;;;;5054428;28;20509;-51
2022/11/04 12:21:59;;;;;;;8.17;7.40;;;10.60;99.90;;;;;;5053470;28;20468;-52
2022/11/04 12:24:34;;;;;;;8.60;7.77;;;10.60;99.90;;;;;;5053800;28;20458;-52
2022/11/04 12:27:07;;;;;;;8.13;7.13;;;10.60;99.90;;;;;;5053691;28;20458;-52
2022/11/04 12:29:46;;;;;;;9.00;8.13;;;10.60;99.90;;;;;;5046006;28;20482;-52
2022/11/04 12:32:23;;;;;;;10.57;8.80;;;10.50;99.90;;;;;;5053938;28;20446;-51
2022/11/04 12:35:03;;;;;;;11.20;10.10;;;10.50;99.90;;;;;;5053540;28;20458;-51
2022/11/04 12:37:38;;;;;;;10.63;8.70;;;10.60;99.90;;;;;;5053966;28;20469;-51
2022/11/04 12:40:15;;;;;;;9.97;8.97;;;10.60;99.90;;;;;;5051270;28;20535;-51
2022/11/04 12:42:52;;;;;;;8.70;7.63;;;10.50;99.90;;;;;;5033854;28;20857;-51
2022/11/04 12:45:29;;;;;;;9.17;8.10;;;10.60;99.90;;;;;;5033966;28;20446;-53
2022/11/04 12:48:04;;;;;;;10.27;7.30;;;10.50;99.90;;;;;;5033898;28;20439;-53
2022/11/04 12:50:41;;;;;;;8.70;7.50;;;10.60;99.90;;;;;;5036561;28;20575;-52
2022/11/04 12:53:29;;;;;;;9.57;8.50;;;10.50;99.90;;;;;;5053470;28;20611;-52
2022/11/04 12:56:05;;;;;;;11.77;8.20;;;10.50;99.90;;;;;;5019909;28;20462;-53
2022/11/04 12:58:53;;;;;;;7.50;6.90;;;10.50;99.90;;;;;;5053658;28;20462;-52
2022/11/04 13:01:26;;;;;;;11.13;7.47;;;10.50;99.90;;;;;;5053137;28;20504;-52
2022/11/04 13:03:59;;;;;;;8.10;7.30;;;10.50;99.90;;;;;;5053361;28;20449;-53
2022/11/04 13:06:30;;;;;;;8.93;7.10;;;10.50;99.90;;;;;;5052361;28;20469;-53
2022/11/04 13:09:02;;;;;;;7.23;6.63;;;10.40;99.90;;;;;;5053285;28;20469;-53
2022/11/04 13:11:33;;;;;;;12.27;7.33;;;10.40;99.90;;;;;;5052695;28;20555;-53
2022/11/04 13:14:04;;;;;;;8.60;7.80;;;10.40;99.90;;;;;;5053278;28;20492;-51
2022/11/04 13:16:33;;;;;;;8.80;7.80;;;10.40;99.90;;;;;;5053164;28;20442;-51
2022/11/04 13:19:02;;;;;;;11.80;8.10;;;10.40;99.90;;;;;;5053179;28;20529;-51
2022/11/04 13:21:35;;;;;;;9.33;8.47;;;10.40;99.90;;;;;;5052156;28;20464;-51
2022/11/04 13:24:05;;;;;;;11.20;8.10;;;10.30;99.90;;;;;;5052908;28;20811;-52
2022/11/04 13:26:32;;;;;;;8.37;7.57;;;10.30;99.90;;;;;;5052615;28;20458;-51
2022/11/04 13:29:04;;;;;;;8.77;8.03;;;10.30;99.90;;;;;;5052825;28;20470;-51
2022/11/04 13:31:41;;;;;;;8.63;7.70;;;10.30;99.90;;;;;;5052581;28;20486;-51